createdAt,value
2018-12-15T00:02:12.591Z,31.35
2018-12-15T00:05:20.204Z,31.42
2018-12-15T00:08:26.075Z,25.25
2018-12-15T00:11:32.018Z,32.93
2018-12-15T00:14:38.467Z,31.75
2018-12-15T00:17:44.376Z,29.70
2018-12-15T00:20:50.292Z,31.90
2018-12-15T00:23:56.149Z,29.67
2018-12-15T00:27:01.787Z,30.27
2018-12-15T00:30:08.263Z,28.00
2018-12-15T00:33:13.868Z,33.95
2018-12-15T00:36:20.334Z,32.88
2018-12-15T00:39:26.207Z,35.85
2018-12-15T00:42:35.092Z,32.75
2018-12-15T00:45:41.028Z,34.85
2018-12-15T00:48:46.784Z,32.33
2018-12-15T00:51:52.383Z,30.85
2018-12-15T00:54:58.292Z,28.62
2018-12-15T00:58:04.176Z,34.20
2018-12-15T01:01:10.289Z,31.00
2018-12-15T01:04:16.613Z,33.13
2018-12-15T01:07:22.796Z,28.27
2018-12-15T01:10:28.685Z,29.00
2018-12-15T01:13:34.606Z,34.48
2018-12-15T01:16:40.231Z,28.32
2018-12-15T01:19:46.151Z,33.50
2018-12-15T01:22:51.731Z,30.88
2018-12-15T01:25:57.669Z,32.53
2018-12-15T01:29:03.820Z,30.90
2018-12-15T01:32:09.746Z,31.85
2018-12-15T01:35:15.629Z,33.73
2018-12-15T01:38:21.536Z,33.78
2018-12-15T01:41:27.398Z,30.85
2018-12-15T01:44:33.044Z,28.35
2018-12-15T01:47:39.192Z,32.28
2018-12-15T01:50:45.564Z,28.25
2018-12-15T01:53:51.461Z,31.10
2018-12-15T01:56:57.097Z,30.35
2018-12-15T02:00:02.821Z,29.30
2018-12-15T02:03:10.009Z,31.65
2018-12-15T02:06:15.897Z,33.02
2018-12-15T02:09:22.099Z,33.85
2018-12-15T02:12:28.456Z,27.80
2018-12-15T02:15:39.383Z,32.23
2018-12-15T02:18:47.152Z,37.63
2018-12-15T02:21:54.460Z,36.85
2018-12-15T02:25:01.821Z,40.05
2018-12-15T02:28:07.491Z,31.47
2018-12-15T02:31:13.098Z,42.37
2018-12-15T02:34:19.879Z,30.70
2018-12-15T02:37:25.767Z,31.23
2018-12-15T02:40:31.496Z,33.47
2018-12-15T02:43:37.106Z,38.30
2018-12-15T02:46:42.755Z,35.25
2018-12-15T02:49:48.361Z,31.25
2018-12-15T02:52:53.990Z,32.98
2018-12-15T02:55:59.977Z,38.90
2018-12-15T02:59:06.049Z,34.70
2018-12-15T03:02:11.978Z,34.30
2018-12-15T03:05:18.216Z,37.40
2018-12-15T03:08:23.834Z,36.73
2018-12-15T03:11:30.120Z,37.50
2018-12-15T03:14:36.036Z,34.85
2018-12-15T03:17:48.774Z,33.42
2018-12-15T03:21:02.883Z,43.02
2018-12-15T03:24:09.054Z,30.50
2018-12-15T03:27:14.951Z,29.55
2018-12-15T03:30:20.883Z,32.98
2018-12-15T03:33:26.964Z,31.62
2018-12-15T03:36:32.604Z,36.73
2018-12-15T03:39:38.335Z,38.43
2018-12-15T03:42:43.977Z,35.87
2018-12-15T03:45:50.622Z,28.23
2018-12-15T03:48:56.244Z,27.15
2018-12-15T03:52:02.130Z,34.67
2018-12-15T03:55:07.868Z,34.85
2018-12-15T03:58:13.772Z,30.90
2018-12-15T04:01:19.551Z,32.13
2018-12-15T04:04:25.162Z,38.10
2018-12-15T04:07:31.358Z,36.43
2018-12-15T04:10:37.277Z,39.35
2018-12-15T04:13:43.180Z,36.42
2018-12-15T04:16:48.831Z,38.83
2018-12-15T04:19:54.752Z,31.80
2018-12-15T04:23:01.067Z,33.90
2018-12-15T04:26:06.966Z,34.63
2018-12-15T04:29:13.514Z,32.83
2018-12-15T04:32:19.431Z,32.88
2018-12-15T04:35:25.315Z,31.87
2018-12-15T04:38:31.235Z,35.83
2018-12-15T04:41:36.833Z,29.43
2018-12-15T04:44:42.559Z,30.77
2018-12-15T04:47:48.484Z,32.20
2018-12-15T04:50:54.116Z,30.00
2018-12-15T04:53:59.712Z,32.40
2018-12-15T04:57:05.608Z,28.23
2018-12-15T05:00:11.638Z,31.27
2018-12-15T05:03:17.554Z,33.05
2018-12-15T05:06:26.197Z,27.17
2018-12-15T05:09:32.429Z,31.57
2018-12-15T05:12:38.028Z,31.83
2018-12-15T05:15:43.675Z,29.42
2018-12-15T05:18:49.589Z,29.90
2018-12-15T05:21:55.219Z,34.57
2018-12-15T05:25:01.081Z,31.85
2018-12-15T05:28:06.785Z,33.50
2018-12-15T05:31:12.419Z,31.27
2018-12-15T05:34:20.248Z,28.17
2018-12-15T05:37:26.042Z,28.53
2018-12-15T05:40:32.501Z,30.85
2018-12-15T05:43:38.102Z,28.98
2018-12-15T05:46:43.801Z,31.05
2018-12-15T05:49:49.741Z,27.77
2018-12-15T05:52:55.359Z,32.27
2018-12-15T05:56:00.970Z,29.95
2018-12-15T05:59:06.879Z,31.43
2018-12-15T06:02:14.965Z,28.67
2018-12-15T06:05:21.421Z,33.20
2018-12-15T06:08:27.322Z,32.65
2018-12-15T06:11:33.660Z,33.65
2018-12-15T06:14:39.304Z,33.40
2018-12-15T06:17:44.929Z,33.33
2018-12-15T06:20:50.860Z,29.13
2018-12-15T06:23:56.500Z,34.70
2018-12-15T06:27:02.133Z,35.03
2018-12-15T06:30:09.311Z,32.58
2018-12-15T06:33:15.308Z,34.23
2018-12-15T06:36:21.291Z,30.65
2018-12-15T06:39:26.913Z,31.17
2018-12-15T06:42:33.131Z,31.85
2018-12-15T06:45:40.125Z,32.15
2018-12-15T06:48:45.786Z,36.48
2018-12-15T06:51:51.667Z,39.40
2018-12-15T06:54:57.516Z,43.50
2018-12-15T06:58:03.090Z,33.67
2018-12-15T07:01:08.712Z,36.85
2018-12-15T07:04:14.668Z,35.50
2018-12-15T07:07:20.609Z,29.27
2018-12-15T07:10:26.468Z,36.95
2018-12-15T07:13:32.732Z,30.92
2018-12-15T07:16:38.407Z,33.80
2018-12-15T07:19:44.023Z,35.27
2018-12-15T07:22:49.617Z,31.82
2018-12-15T07:25:55.991Z,37.13
2018-12-15T07:29:02.037Z,31.25
2018-12-15T07:32:07.954Z,34.90
2018-12-15T07:35:13.584Z,35.03
2018-12-15T07:38:19.418Z,36.30
2018-12-15T07:41:25.621Z,31.05
2018-12-15T07:44:32.046Z,38.85
2018-12-15T07:47:37.984Z,29.95
2018-12-15T07:50:43.877Z,25.85
2018-12-15T07:53:49.515Z,30.00
2018-12-15T07:56:55.426Z,34.88
2018-12-15T08:00:01.113Z,31.80
2018-12-15T08:03:07.980Z,30.30
2018-12-15T08:06:13.589Z,32.57
2018-12-15T08:09:19.246Z,27.70
2018-12-15T08:12:30.241Z,28.23
2018-12-15T08:15:36.528Z,31.97
2018-12-15T08:18:42.327Z,28.90
2018-12-15T08:21:48.149Z,29.10
2018-12-15T08:24:53.837Z,32.10
2018-12-15T08:27:59.474Z,30.13
2018-12-15T08:31:05.111Z,29.60
2018-12-15T08:34:10.869Z,31.02
2018-12-15T08:37:17.139Z,32.98
2018-12-15T08:40:23.647Z,31.23
2018-12-15T08:43:29.784Z,36.65
2018-12-15T08:46:35.919Z,33.37
2018-12-15T08:49:42.260Z,25.88
2018-12-15T08:52:48.328Z,41.13
2018-12-15T08:55:54.479Z,34.70
2018-12-15T08:59:00.458Z,35.08
2018-12-15T09:02:06.856Z,30.30
2018-12-15T09:05:12.860Z,30.23
2018-12-15T09:08:18.949Z,27.10
2018-12-15T09:11:25.288Z,28.98
2018-12-15T09:14:30.899Z,30.55
2018-12-15T09:17:37.246Z,29.77
2018-12-15T09:20:43.136Z,33.73
2018-12-15T09:23:49.078Z,31.50
2018-12-15T09:26:54.805Z,34.53
2018-12-15T09:30:00.460Z,30.32
2018-12-15T09:33:08.229Z,33.15
2018-12-15T09:36:13.986Z,29.20
2018-12-15T09:39:20.626Z,26.90
2018-12-15T09:42:26.594Z,31.37
2018-12-15T09:45:32.753Z,33.18
2018-12-15T09:48:38.855Z,27.75
2018-12-15T09:51:44.971Z,30.43
2018-12-15T09:54:50.613Z,33.03
2018-12-15T09:57:56.241Z,28.62
2018-12-15T10:01:02.193Z,34.80
2018-12-15T10:04:08.376Z,31.23
2018-12-15T10:07:14.280Z,33.55
2018-12-15T10:10:20.717Z,32.17
2018-12-15T10:13:26.765Z,33.60
2018-12-15T10:16:32.563Z,29.67
2018-12-15T10:19:38.739Z,31.00
2018-12-15T10:22:44.624Z,27.05
2018-12-15T10:25:50.542Z,28.20
2018-12-15T10:28:57.415Z,28.67
2018-12-15T10:32:08.318Z,25.68
2018-12-15T10:35:14.118Z,26.33
2018-12-15T10:38:20.529Z,24.97
2018-12-15T10:41:26.595Z,27.98
2018-12-15T10:44:34.190Z,28.43
2018-12-15T10:47:39.856Z,28.33
2018-12-15T10:50:47.589Z,29.30
2018-12-15T10:53:54.743Z,27.90
2018-12-15T10:57:00.841Z,28.38
2018-12-15T11:00:15.671Z,26.37
2018-12-15T11:03:22.084Z,24.83
2018-12-15T11:06:29.694Z,26.07
2018-12-15T11:09:35.776Z,33.10
2018-12-15T11:12:42.416Z,30.50
2018-12-15T11:15:50.097Z,24.92
2018-12-15T11:18:57.040Z,26.07
2018-12-15T11:22:04.380Z,28.97
2018-12-15T11:25:10.932Z,30.88
2018-12-15T11:28:18.714Z,32.50
2018-12-15T11:31:25.449Z,29.20
2018-12-15T11:34:32.850Z,33.30
2018-12-15T11:37:39.585Z,30.80
2018-12-15T11:40:47.533Z,32.98
2018-12-15T11:43:53.694Z,33.35
2018-12-15T11:47:00.487Z,31.52
2018-12-15T11:50:07.483Z,29.67
2018-12-15T11:53:15.215Z,40.78
2018-12-15T11:56:25.143Z,33.92
2018-12-15T11:59:34.886Z,26.95
2018-12-15T12:02:41.903Z,32.53
2018-12-15T12:05:48.886Z,31.90
2018-12-15T12:08:55.675Z,37.20
2018-12-15T12:12:03.986Z,30.88
2018-12-15T12:15:11.461Z,30.48
2018-12-15T12:18:17.667Z,32.88
2018-12-15T12:21:25.169Z,32.35
2018-12-15T12:24:32.582Z,32.03
2018-12-15T12:27:41.656Z,36.00
2018-12-15T12:30:50.247Z,31.70
2018-12-15T12:33:56.131Z,30.55
2018-12-15T12:37:03.041Z,32.17
2018-12-15T12:40:10.589Z,29.98
2018-12-15T12:43:16.738Z,37.23
2018-12-15T12:46:23.272Z,33.85
2018-12-15T12:49:32.047Z,34.18
2018-12-15T12:52:38.883Z,28.92
2018-12-15T12:55:45.700Z,31.73
2018-12-15T12:58:52.233Z,36.73
2018-12-15T13:02:00.372Z,30.88
2018-12-15T13:05:08.114Z,35.73
2018-12-15T13:08:13.872Z,32.33
2018-12-15T13:11:21.381Z,34.05
2018-12-15T13:14:28.432Z,31.77
2018-12-15T13:17:37.131Z,31.07
2018-12-15T13:20:43.419Z,33.28
2018-12-15T13:23:49.717Z,32.23
2018-12-15T13:26:59.152Z,34.08
2018-12-15T13:30:04.234Z,31.30
2018-12-15T13:33:27.126Z,40.75
2018-12-15T13:36:33.786Z,32.15
2018-12-15T13:39:39.673Z,34.08
2018-12-15T13:42:46.443Z,34.78
2018-12-15T13:45:52.445Z,32.10
2018-12-15T13:48:58.184Z,37.10
2018-12-15T13:52:03.822Z,30.40
2018-12-15T13:55:10.739Z,34.25
2018-12-15T13:58:18.029Z,32.25
2018-12-15T14:01:24.029Z,32.55
2018-12-15T14:04:29.805Z,38.33
2018-12-15T14:07:35.535Z,33.18
2018-12-15T14:10:41.272Z,30.60
2018-12-15T14:13:47.413Z,33.23
2018-12-15T14:21:05.023Z,30.02
2018-12-15T14:24:26.480Z,32.42
2018-12-15T14:27:39.803Z,32.48
2018-12-15T14:30:46.326Z,31.00
2018-12-15T14:33:51.974Z,31.00
2018-12-15T14:36:58.692Z,37.40
2018-12-15T14:40:05.045Z,32.63
2018-12-15T14:43:11.079Z,38.83
2018-12-15T14:46:16.737Z,36.55
2018-12-15T14:49:22.628Z,35.68
2018-12-15T14:52:29.932Z,37.98
2018-12-15T14:55:36.171Z,33.38
2018-12-15T14:58:42.089Z,34.07
2018-12-15T15:01:47.988Z,38.57
2018-12-15T15:04:53.972Z,40.67
2018-12-15T15:07:59.853Z,38.20
2018-12-15T15:11:05.761Z,33.05
2018-12-15T15:14:11.649Z,35.08
2018-12-15T15:17:17.797Z,42.83
2018-12-15T15:20:29.668Z,36.90
2018-12-15T15:23:31.764Z,33.63
2018-12-15T15:26:37.431Z,33.95
2018-12-15T15:29:45.513Z,34.88
2018-12-15T15:32:51.283Z,35.17
2018-12-15T15:35:57.087Z,35.17
2018-12-15T15:39:03.783Z,33.45
2018-12-15T15:42:11.227Z,34.27
2018-12-15T15:45:17.079Z,36.30
2018-12-15T15:48:24.298Z,35.23
2018-12-15T15:52:33.790Z,38.48
2018-12-15T15:55:42.578Z,32.45
2018-12-15T15:58:48.697Z,34.25
2018-12-15T16:01:58.421Z,38.17
2018-12-15T16:05:04.987Z,35.40
2018-12-15T16:08:11.447Z,34.77
2018-12-15T16:11:17.400Z,32.17
2018-12-15T16:14:23.426Z,36.48
2018-12-15T16:17:29.037Z,34.60
2018-12-15T16:20:35.199Z,36.95
2018-12-15T16:23:41.449Z,38.30
2018-12-15T16:26:47.995Z,37.67
2018-12-15T16:29:54.293Z,32.45
2018-12-15T16:33:00.525Z,34.00
2018-12-15T16:36:06.896Z,32.67
2018-12-15T16:39:12.882Z,39.88
2018-12-15T16:42:18.771Z,37.00
2018-12-15T16:45:24.684Z,42.00
2018-12-15T16:48:30.592Z,38.30
2018-12-15T16:51:36.350Z,41.48
2018-12-15T16:54:42.453Z,43.73
2018-12-15T16:57:48.398Z,36.53
2018-12-15T17:00:54.890Z,44.70
2018-12-15T17:04:00.733Z,39.40
2018-12-15T17:07:07.062Z,36.95
2018-12-15T17:10:12.704Z,41.77
2018-12-15T17:13:19.672Z,36.90
2018-12-15T17:16:25.918Z,37.17
2018-12-15T17:21:17.589Z,38.10
2018-12-15T17:24:23.228Z,41.15
2018-12-15T17:27:32.335Z,34.23
2018-12-15T17:30:38.751Z,41.70
2018-12-15T17:33:46.593Z,40.83
2018-12-15T17:36:53.069Z,42.47
2018-12-15T17:39:58.838Z,40.90
2018-12-15T17:43:05.323Z,36.00
2018-12-15T17:46:11.222Z,41.08
2018-12-15T17:49:17.589Z,38.53
2018-12-15T17:52:23.607Z,48.60
2018-12-15T17:55:29.600Z,42.65
2018-12-15T17:58:35.493Z,43.40
2018-12-15T18:01:44.757Z,51.05
2018-12-15T18:04:50.661Z,49.65
2018-12-15T18:07:59.822Z,47.98
2018-12-15T18:11:07.624Z,40.50
2018-12-15T18:14:14.850Z,43.58
2018-12-15T18:17:22.303Z,39.13
2018-12-15T18:20:29.551Z,40.65
2018-12-15T18:23:36.817Z,45.50
2018-12-15T18:26:45.168Z,39.80
2018-12-15T18:29:52.560Z,43.52
2018-12-15T18:33:01.377Z,41.00
2018-12-15T18:36:08.330Z,44.30
2018-12-15T18:39:15.722Z,43.25
2018-12-15T18:42:22.995Z,42.45
2018-12-15T18:47:26.885Z,50.12
2018-12-15T18:50:35.175Z,48.23
2018-12-15T18:53:42.476Z,46.05
2018-12-15T18:56:50.114Z,42.50
2018-12-15T18:59:56.225Z,45.73
2018-12-15T19:03:02.317Z,45.30
2018-12-15T19:06:08.520Z,40.90
2018-12-15T19:09:14.439Z,37.23
2018-12-15T19:12:22.379Z,41.55
2018-12-15T19:15:28.339Z,39.95
2018-12-15T19:18:34.091Z,37.40
2018-12-15T19:21:40.229Z,40.90
2018-12-15T19:24:46.270Z,41.18
2018-12-15T19:27:52.301Z,37.63
2018-12-15T19:30:57.962Z,39.40
2018-12-15T19:34:04.447Z,39.85
2018-12-15T19:37:10.356Z,47.23
2018-12-15T19:40:15.987Z,37.65
2018-12-15T19:43:21.828Z,43.83
2018-12-15T19:46:27.440Z,42.53
2018-12-15T19:49:33.446Z,36.48
2018-12-15T19:52:39.121Z,34.63
2018-12-15T19:55:44.855Z,38.30
2018-12-15T19:58:50.818Z,39.23
2018-12-15T20:01:56.811Z,40.00
2018-12-15T20:05:02.689Z,40.40
2018-12-15T20:08:08.584Z,37.33
2018-12-15T20:11:15.785Z,49.53
2018-12-15T20:14:21.768Z,41.80
2018-12-15T20:17:28.093Z,37.33
2018-12-15T20:20:33.715Z,47.50
2018-12-15T20:23:39.329Z,39.95
2018-12-15T20:26:45.384Z,37.95
2018-12-15T20:29:50.995Z,40.40
2018-12-15T20:32:56.720Z,39.60
2018-12-15T20:36:04.383Z,33.97
2018-12-15T20:39:10.359Z,34.70
2018-12-15T20:42:16.284Z,42.17
2018-12-15T20:45:22.717Z,39.70
2018-12-15T20:48:28.343Z,34.07
2018-12-15T20:51:33.963Z,37.48
2018-12-15T20:54:39.741Z,42.67
2018-12-15T20:57:45.954Z,40.20
2018-12-15T21:00:51.960Z,40.60
2018-12-15T21:03:57.891Z,38.67
2018-12-15T21:07:04.274Z,40.90
2018-12-15T21:10:10.600Z,41.18
2018-12-15T21:13:16.974Z,39.15
2018-12-15T21:16:23.199Z,39.75
2018-12-15T21:19:29.210Z,39.42
2018-12-15T21:22:35.143Z,40.45
2018-12-15T21:25:41.165Z,37.70
2018-12-15T21:28:46.856Z,38.43
2018-12-15T21:31:56.780Z,41.85
2018-12-15T21:35:00.486Z,39.90
2018-12-15T21:38:07.290Z,38.20
2018-12-15T21:41:14.585Z,43.40
2018-12-15T21:44:20.211Z,40.05
2018-12-15T21:47:26.107Z,41.50
2018-12-15T21:50:32.027Z,36.20
2018-12-15T21:53:37.673Z,34.70
2018-12-15T21:56:43.366Z,38.73
2018-12-15T21:59:49.090Z,37.05
2018-12-15T22:02:54.701Z,45.03
2018-12-15T22:06:00.334Z,40.85
2018-12-15T22:09:08.488Z,40.50
2018-12-15T22:12:14.848Z,41.20
2018-12-15T22:15:20.504Z,41.15
2018-12-15T22:18:26.448Z,40.52
2018-12-15T22:21:32.237Z,35.17
2018-12-15T22:24:37.868Z,37.23
2018-12-15T22:27:43.473Z,37.28
2018-12-15T22:30:50.333Z,33.13
2018-12-15T22:33:56.069Z,34.90
2018-12-15T22:37:01.708Z,38.80
2018-12-15T22:40:08.305Z,41.13
2018-12-15T22:43:14.092Z,40.20
2018-12-15T22:46:20.020Z,38.13
2018-12-15T22:49:25.678Z,39.13
2018-12-15T22:52:31.301Z,40.30
2018-12-15T22:55:37.216Z,43.23
2018-12-15T22:58:42.873Z,36.93
2018-12-15T23:01:49.120Z,40.40
2018-12-15T23:04:55.636Z,39.18
2018-12-15T23:08:01.716Z,41.10
2018-12-15T23:11:07.609Z,37.38
2018-12-15T23:14:13.279Z,44.95
2018-12-15T23:17:19.185Z,38.60
2018-12-15T23:20:24.857Z,42.80
2018-12-15T23:23:30.476Z,38.10
2018-12-15T23:26:37.522Z,39.35
2018-12-15T23:29:43.098Z,36.27
2018-12-15T23:32:49.009Z,41.13
2018-12-15T23:35:54.610Z,44.03
2018-12-15T23:39:00.253Z,39.58
2018-12-15T23:42:06.595Z,38.35
2018-12-15T23:45:12.903Z,41.58
2018-12-15T23:48:18.485Z,35.83
2018-12-15T23:51:24.168Z,36.73
2018-12-15T23:54:30.081Z,37.80
2018-12-15T23:57:36.024Z,35.93
